createdAt,value
2022-11-02T00:04:46.919Z,46.00
2022-11-02T00:09:49.207Z,46.50
2022-11-02T00:14:51.518Z,45.00
2022-11-02T00:19:53.860Z,44.10
2022-11-02T00:24:56.387Z,47.37
2022-11-02T00:30:01.846Z,49.53
2022-11-02T00:35:05.668Z,44.67
2022-11-02T00:40:08.549Z,49.77
2022-11-02T00:45:11.108Z,53.43
2022-11-02T00:50:13.383Z,79.57
2022-11-02T00:55:18.086Z,62.80
2022-11-02T01:00:20.762Z,66.93
2022-11-02T01:05:23.054Z,57.47
2022-11-02T01:10:26.256Z,51.27
2022-11-02T01:15:28.781Z,54.03
2022-11-02T01:20:31.299Z,55.13
2022-11-02T01:25:33.628Z,35.03
2022-11-02T01:30:38.666Z,37.47
2022-11-02T01:35:41.102Z,28.77
2022-11-02T01:40:43.581Z,28.23
2022-11-02T01:45:46.922Z,26.60
2022-11-02T01:50:49.942Z,23.27
2022-11-02T01:55:52.551Z,26.77
2022-11-02T02:00:55.390Z,26.10
2022-11-02T02:06:01.727Z,24.27
2022-11-02T02:11:23.643Z,23.40
2022-11-02T02:17:07.908Z,17.60
2022-11-02T02:22:30.361Z,19.70
2022-11-02T02:28:10.527Z,20.53
2022-11-02T02:33:23.447Z,22.10
2022-11-02T02:38:34.741Z,23.53
2022-11-02T02:43:54.954Z,23.03
2022-11-02T02:48:58.391Z,20.60
2022-11-02T02:54:13.804Z,20.63
2022-11-02T02:59:38.771Z,26.67
2022-11-02T03:04:41.817Z,27.37
2022-11-02T03:09:52.194Z,25.70
2022-11-02T03:15:11.271Z,31.50
2022-11-02T03:20:28.375Z,44.93
2022-11-02T03:25:45.585Z,46.23
2022-11-02T03:31:08.349Z,50.87
2022-11-02T03:36:26.267Z,55.50
2022-11-02T03:41:31.825Z,48.60
2022-11-02T03:46:38.632Z,75.80
2022-11-02T03:51:45.128Z,56.70
2022-11-02T03:56:53.426Z,58.97
2022-11-02T04:01:56.092Z,56.57
2022-11-02T04:06:59.340Z,51.30
2022-11-02T04:12:20.172Z,55.07
2022-11-02T04:17:41.831Z,53.93
2022-11-02T04:23:06.492Z,55.37
2022-11-02T04:28:09.906Z,57.23
2022-11-02T04:33:33.229Z,52.90
2022-11-02T04:38:44.968Z,61.77
2022-11-02T04:43:55.299Z,97.33
2022-11-02T04:48:57.996Z,85.63
2022-11-02T04:54:01.805Z,64.67
2022-11-02T04:59:04.887Z,69.67
2022-11-02T05:04:10.999Z,123.30
2022-11-02T05:09:14.638Z,63.23
2022-11-02T05:14:20.714Z,75.23
2022-11-02T05:19:23.208Z,62.67
2022-11-02T05:24:25.832Z,80.13
2022-11-02T05:29:28.445Z,60.33
2022-11-02T05:34:31.172Z,54.00
2022-11-02T05:39:35.579Z,54.97
2022-11-02T05:44:38.471Z,47.80
2022-11-02T05:49:40.970Z,47.27
2022-11-02T05:54:43.394Z,44.70
2022-11-02T05:59:49.185Z,42.97
2022-11-02T06:04:52.288Z,40.73
2022-11-02T06:09:54.754Z,36.13
2022-11-02T06:14:57.172Z,41.03
2022-11-02T06:19:59.594Z,35.33
2022-11-02T06:25:02.220Z,34.43
2022-11-02T06:30:06.145Z,33.23
2022-11-02T06:35:08.887Z,34.27
2022-11-02T06:40:12.457Z,35.70
2022-11-02T06:45:14.801Z,38.00
2022-11-02T06:50:17.203Z,33.87
2022-11-02T06:55:19.965Z,33.13
2022-11-02T07:00:24.069Z,31.23
2022-11-02T07:05:27.002Z,29.20
2022-11-02T07:10:30.282Z,29.63
2022-11-02T07:15:32.694Z,30.73
2022-11-02T07:20:35.542Z,26.67
2022-11-02T07:25:37.929Z,28.17
2022-11-02T07:30:40.374Z,27.40
2022-11-02T07:35:42.720Z,23.27
2022-11-02T07:40:49.747Z,19.30
2022-11-02T07:45:52.192Z,20.10
2022-11-02T07:50:56.903Z,19.03
2022-11-02T07:56:03.424Z,17.23
2022-11-02T08:01:06.096Z,14.83
2022-11-02T08:06:08.505Z,13.57
2022-11-02T08:11:11.092Z,13.73
2022-11-02T08:16:13.420Z,14.43
2022-11-02T08:21:16.019Z,13.73
2022-11-02T08:26:18.637Z,15.03
2022-11-02T08:31:20.908Z,12.30
2022-11-02T08:36:23.233Z,12.00
2022-11-02T08:41:28.133Z,13.17
2022-11-02T08:46:30.544Z,15.70
2022-11-02T08:51:32.873Z,11.93
2022-11-02T08:56:35.350Z,18.13
2022-11-02T09:01:39.219Z,12.90
2022-11-02T09:06:41.632Z,11.47
2022-11-02T09:11:44.410Z,16.30
2022-11-02T09:16:46.766Z,11.40
2022-11-02T09:21:51.450Z,13.23
2022-11-02T09:26:53.816Z,15.73
2022-11-02T09:31:56.267Z,10.13
2022-11-02T09:36:58.775Z,11.23
2022-11-02T09:42:26.972Z,13.63
2022-11-02T09:53:02.914Z,10.10
2022-11-02T09:58:17.121Z,12.40
2022-11-02T10:03:43.319Z,14.93
2022-11-02T10:08:48.564Z,10.23
2022-11-02T10:14:30.786Z,14.17
2022-11-02T10:19:36.505Z,11.37
2022-11-02T10:24:47.051Z,7.67
2022-11-02T10:30:03.457Z,14.60
2022-11-02T10:35:51.525Z,8.23
2022-11-02T10:41:16.587Z,8.60
2022-11-02T10:46:50.625Z,11.27
2022-11-02T10:51:53.045Z,9.67
2022-11-02T10:56:56.778Z,7.83
2022-11-02T11:01:59.352Z,7.43
2022-11-02T11:07:15.892Z,10.70
2022-11-02T11:12:23.326Z,9.17
2022-11-02T11:23:16.463Z,7.87
2022-11-02T11:28:31.407Z,10.20
2022-11-02T11:33:43.034Z,7.87
2022-11-02T11:38:48.234Z,8.60
2022-11-02T11:43:52.241Z,12.20
2022-11-02T11:48:59.236Z,7.20
2022-11-02T11:54:21.176Z,8.70
2022-11-02T11:59:45.080Z,14.93
2022-11-02T12:04:50.016Z,8.30
2022-11-02T12:10:20.175Z,9.13
2022-11-02T12:15:31.661Z,8.80
2022-11-02T12:20:53.774Z,8.30
2022-11-02T12:26:04.939Z,16.47
2022-11-02T12:31:23.344Z,9.67
2022-11-02T12:36:25.802Z,7.53
2022-11-02T12:41:52.852Z,11.60
2022-11-02T12:46:55.712Z,9.07
2022-11-02T12:52:41.031Z,9.40
2022-11-02T12:57:44.292Z,9.67
2022-11-02T13:03:14.980Z,9.20
2022-11-02T13:08:22.764Z,10.10
2022-11-02T13:13:56.249Z,6.57
2022-11-02T13:19:01.599Z,9.43
2022-11-02T13:24:06.382Z,10.10
2022-11-02T13:29:30.621Z,7.60
2022-11-02T13:34:40.495Z,7.37
2022-11-02T13:39:48.087Z,9.43
2022-11-02T13:44:53.668Z,11.87
2022-11-02T13:49:58.702Z,8.93
2022-11-02T13:55:03.440Z,5.53
2022-11-02T14:00:25.926Z,6.53
2022-11-02T14:05:31.998Z,7.97
2022-11-02T14:10:39.050Z,7.53
2022-11-02T14:15:42.982Z,9.20
2022-11-02T14:20:46.966Z,10.40
2022-11-02T14:25:54.924Z,6.77
2022-11-02T14:31:06.386Z,16.43
2022-11-02T14:36:10.973Z,15.30
2022-11-02T14:41:22.325Z,9.13
2022-11-02T14:46:36.659Z,12.73
2022-11-02T14:51:39.250Z,8.70
2022-11-02T14:57:05.789Z,6.80
2022-11-02T15:02:40.313Z,7.80
2022-11-02T15:07:50.437Z,10.37
2022-11-02T15:13:18.734Z,10.60
2022-11-02T15:18:31.699Z,7.77
2022-11-02T15:23:55.679Z,46.03
2022-11-02T15:29:02.677Z,14.17
2022-11-02T15:34:16.738Z,27.43
2022-11-02T15:39:19.910Z,24.17
2022-11-02T15:44:34.375Z,15.03
2022-11-02T15:49:54.664Z,23.37
2022-11-02T15:55:24.325Z,17.70
2022-11-02T16:00:32.768Z,35.53
2022-11-02T16:05:46.797Z,38.10
2022-11-02T16:10:49.438Z,28.93
2022-11-02T16:16:04.781Z,28.33
2022-11-02T16:21:10.941Z,28.43
2022-11-02T16:26:23.361Z,25.87
2022-11-02T16:31:31.297Z,29.47
2022-11-02T16:36:37.960Z,43.90
2022-11-02T16:41:41.250Z,32.23
2022-11-02T16:46:55.804Z,51.07
2022-11-02T16:52:19.430Z,47.00
2022-11-02T16:57:25.438Z,41.63
2022-11-02T17:02:42.520Z,19.10
2022-11-02T17:07:57.549Z,41.23
2022-11-02T17:13:01.474Z,29.80
2022-11-02T17:18:09.780Z,12.37
2022-11-02T17:23:32.510Z,20.40
2022-11-02T17:28:34.978Z,12.63
2022-11-02T17:33:37.984Z,15.40
2022-11-02T17:38:40.561Z,15.57
2022-11-02T17:43:42.939Z,12.87
2022-11-02T17:48:45.329Z,11.97
2022-11-02T17:53:49.778Z,37.57
2022-11-02T17:58:52.119Z,13.90
2022-11-02T18:03:54.536Z,19.37
2022-11-02T18:09:13.962Z,35.90
2022-11-02T18:14:17.130Z,17.50
2022-11-02T18:19:19.643Z,16.77
2022-11-02T18:24:22.027Z,10.57
2022-11-02T18:29:24.478Z,8.87
2022-11-02T18:34:27.270Z,15.53
2022-11-02T18:39:29.670Z,11.23
2022-11-02T18:44:32.096Z,10.90
2022-11-02T18:49:34.522Z,12.27
2022-11-02T18:54:36.950Z,16.30
2022-11-02T18:59:39.331Z,23.27
2022-11-02T19:04:41.747Z,20.27
2022-11-02T19:09:44.823Z,23.47
2022-11-02T19:14:51.409Z,43.07
2022-11-02T19:19:54.299Z,21.67
2022-11-02T19:24:56.667Z,39.23
2022-11-02T19:29:59.215Z,34.73
2022-11-02T19:35:01.880Z,49.60
2022-11-02T19:40:04.786Z,44.80
2022-11-02T19:45:07.567Z,33.43
2022-11-02T19:50:13.379Z,107.00
2022-11-02T19:55:17.358Z,30.10
2022-11-02T20:00:19.877Z,108.33
2022-11-02T20:05:22.444Z,29.80
2022-11-02T20:10:24.955Z,29.90
2022-11-02T20:15:27.511Z,33.73
2022-11-02T20:20:30.038Z,27.20
2022-11-02T20:25:32.610Z,19.40
2022-11-02T20:30:35.324Z,31.67
2022-11-02T20:35:39.393Z,21.63
2022-11-02T20:40:41.862Z,19.50
2022-11-02T20:45:44.869Z,16.27
2022-11-02T20:50:47.349Z,21.23
2022-11-02T20:55:50.002Z,23.10
2022-11-02T21:00:52.959Z,19.83
2022-11-02T21:05:56.628Z,16.87
2022-11-02T21:11:01.113Z,28.80
2022-11-02T21:16:04.232Z,109.03
2022-11-02T21:21:20.991Z,44.93
2022-11-02T21:26:23.541Z,19.13
2022-11-02T21:31:26.094Z,14.73
2022-11-02T21:36:29.209Z,13.97
2022-11-02T21:41:36.705Z,18.13
2022-11-02T21:46:39.249Z,20.23
2022-11-02T21:51:43.027Z,21.90
2022-11-02T21:56:46.435Z,14.63
2022-11-02T22:01:49.795Z,13.87
2022-11-02T22:06:52.745Z,16.70
2022-11-02T22:12:14.870Z,15.80
2022-11-02T22:17:35.750Z,16.57
2022-11-02T22:22:40.052Z,18.53
2022-11-02T22:27:42.590Z,19.07
2022-11-02T22:32:45.202Z,14.17
2022-11-02T22:38:06.476Z,15.10
2022-11-02T22:43:09.294Z,16.10
2022-11-02T22:48:12.113Z,14.83
2022-11-02T22:53:14.693Z,12.70
2022-11-02T22:58:19.673Z,16.87
2022-11-02T23:03:22.273Z,15.83
2022-11-02T23:08:24.795Z,39.93
2022-11-02T23:13:27.469Z,15.57
2022-11-02T23:18:49.922Z,22.33
2022-11-02T23:24:10.899Z,17.83
2022-11-02T23:29:32.176Z,23.73
2022-11-02T23:34:34.703Z,22.37
2022-11-02T23:39:49.475Z,27.10
2022-11-02T23:44:52.217Z,21.40
2022-11-02T23:49:54.774Z,20.03
2022-11-02T23:55:35.448Z,26.57
